sensor_id;sensor_type;location;lat;lon;timestamp;temperature;humidity
28010;DHT22;15334;49.494;8.410;2023-04-01T00:01:40;11.10;99.90
28010;DHT22;15334;49.494;8.410;2023-04-01T00:04:09;11.10;99.90
28010;DHT22;15334;49.494;8.410;2023-04-01T00:06:37;11.20;99.90
28010;DHT22;15334;49.494;8.410;2023-04-01T00:09:06;11.10;99.90
28010;DHT22;15334;49.494;8.410;2023-04-01T00:11:34;11.20;99.90
28010;DHT22;15334;49.494;8.410;2023-04-01T00:14:02;11.20;99.90
28010;DHT22;15334;49.494;8.410;2023-04-01T00:16:29;11.10;99.90
28010;DHT22;15334;49.494;8.410;2023-04-01T00:18:57;11.10;99.90
28010;DHT22;15334;49.494;8.410;2023-04-01T00:21:27;11.10;99.90
28010;DHT22;15334;49.494;8.410;2023-04-01T00:23:55;11.10;99.90
28010;DHT22;15334;49.494;8.410;2023-04-01T00:26:24;11.10;99.90
28010;DHT22;15334;49.494;8.410;2023-04-01T00:28:52;11.00;99.90
28010;DHT22;15334;49.494;8.410;2023-04-01T00:31:20;11.00;99.90
28010;DHT22;15334;49.494;8.410;2023-04-01T00:33:48;11.00;99.90
28010;DHT22;15334;49.494;8.410;2023-04-01T00:36:19;11.10;99.90
28010;DHT22;15334;49.494;8.410;2023-04-01T00:38:49;11.10;99.90
28010;DHT22;15334;49.494;8.410;2023-04-01T00:41:19;11.10;99.90
28010;DHT22;15334;49.494;8.410;2023-04-01T00:43:50;11.10;99.90
28010;DHT22;15334;49.494;8.410;2023-04-01T00:46:18;11.20;99.90
28010;DHT22;15334;49.494;8.410;2023-04-01T00:48:49;11.20;99.90
28010;DHT22;15334;49.494;8.410;2023-04-01T00:51:21;11.20;99.90
28010;DHT22;15334;49.494;8.410;2023-04-01T00:53:54;11.10;99.90
28010;DHT22;15334;49.494;8.410;2023-04-01T00:56:24;11.10;99.90
28010;DHT22;15334;49.494;8.410;2023-04-01T00:58:56;11.10;99.90
28010;DHT22;15334;49.494;8.410;2023-04-01T01:01:26;11.10;99.90
28010;DHT22;15334;49.494;8.410;2023-04-01T01:03:55;11.00;99.90
28010;DHT22;15334;49.494;8.410;2023-04-01T01:06:30;11.00;99.90
28010;DHT22;15334;49.494;8.410;2023-04-01T01:09:22;11.00;99.90
28010;DHT22;15334;49.494;8.410;2023-04-01T01:18:00;11.00;99.90
28010;DHT22;15334;49.494;8.410;2023-04-01T01:21:02;11.00;99.90
28010;DHT22;15334;49.494;8.410;2023-04-01T01:33:56;10.90;99.90
28010;DHT22;15334;49.494;8.410;2023-04-01T01:44:18;10.90;99.90
28010;DHT22;15334;49.494;8.410;2023-04-01T01:46:01;10.80;99.90
28010;DHT22;15334;49.494;8.410;2023-04-01T01:50:57;10.80;99.90
28010;DHT22;15334;49.494;8.410;2023-04-01T01:57:27;10.80;99.90
28010;DHT22;15334;49.494;8.410;2023-04-01T02:01:35;10.80;99.90
28010;DHT22;15334;49.494;8.410;2023-04-01T02:09:55;10.80;99.90
28010;DHT22;15334;49.494;8.410;2023-04-01T02:17:04;10.80;99.90
28010;DHT22;15334;49.494;8.410;2023-04-01T02:20:33;10.80;99.90
28010;DHT22;15334;49.494;8.410;2023-04-01T02:45:05;10.70;99.90
28010;DHT22;15334;49.494;8.410;2023-04-01T02:55:19;10.60;99.90
28010;DHT22;15334;49.494;8.410;2023-04-01T03:12:14;10.50;99.90
28010;DHT22;15334;49.494;8.410;2023-04-01T03:23:54;10.50;99.90
28010;DHT22;15334;49.494;8.410;2023-04-01T03:27:41;10.40;99.90
28010;DHT22;15334;49.494;8.410;2023-04-01T03:40:24;10.40;99.90
28010;DHT22;15334;49.494;8.410;2023-04-01T03:56:35;10.30;99.90
28010;DHT22;15334;49.494;8.410;2023-04-01T04:00:41;10.30;99.90
28010;DHT22;15334;49.494;8.410;2023-04-01T04:04:46;10.30;99.90
28010;DHT22;15334;49.494;8.410;2023-04-01T04:08:51;10.30;99.90
28010;DHT22;15334;49.494;8.410;2023-04-01T04:20:06;10.30;99.90
28010;DHT22;15334;49.494;8.410;2023-04-01T04:31:26;10.50;99.90
28010;DHT22;15334;49.494;8.410;2023-04-01T04:54:59;10.50;99.90
28010;DHT22;15334;49.494;8.410;2023-04-01T04:58:52;10.50;99.90
28010;DHT22;15334;49.494;8.410;2023-04-01T05:10:46;10.60;99.90
28010;DHT22;15334;49.494;8.410;2023-04-01T05:51:45;10.40;99.90
28010;DHT22;15334;49.494;8.410;2023-04-01T05:54:18;10.40;99.90
28010;DHT22;15334;49.494;8.410;2023-04-01T05:56:47;10.40;99.90
28010;DHT22;15334;49.494;8.410;2023-04-01T05:59:15;10.40;99.90
28010;DHT22;15334;49.494;8.410;2023-04-01T06:01:43;10.40;99.90
28010;DHT22;15334;49.494;8.410;2023-04-01T06:04:14;10.40;99.90
28010;DHT22;15334;49.494;8.410;2023-04-01T06:06:58;10.40;99.90
28010;DHT22;15334;49.494;8.410;2023-04-01T06:09:50;10.40;99.90
28010;DHT22;15334;49.494;8.410;2023-04-01T06:12:51;10.30;99.90
28010;DHT22;15334;49.494;8.410;2023-04-01T06:15:34;10.30;99.90
28010;DHT22;15334;49.494;8.410;2023-04-01T06:18:36;10.30;99.90
28010;DHT22;15334;49.494;8.410;2023-04-01T06:21:18;10.30;99.90
28010;DHT22;15334;49.494;8.410;2023-04-01T06:24:15;10.40;99.90
28010;DHT22;15334;49.494;8.410;2023-04-01T06:26:51;10.40;99.90
28010;DHT22;15334;49.494;8.410;2023-04-01T06:29:47;10.40;99.90
28010;DHT22;15334;49.494;8.410;2023-04-01T06:32:48;10.40;99.90
28010;DHT22;15334;49.494;8.410;2023-04-01T06:35:35;10.40;99.90
28010;DHT22;15334;49.494;8.410;2023-04-01T06:38:22;10.50;99.90
28010;DHT22;15334;49.494;8.410;2023-04-01T06:41:23;10.50;99.90
28010;DHT22;15334;49.494;8.410;2023-04-01T06:43:59;10.50;99.90
28010;DHT22;15334;49.494;8.410;2023-04-01T06:46:47;10.50;99.90
28010;DHT22;15334;49.494;8.410;2023-04-01T06:49:41;10.50;99.90
28010;DHT22;15334;49.494;8.410;2023-04-01T06:52:47;10.50;99.90
28010;DHT22;15334;49.494;8.410;2023-04-01T06:55:36;10.60;99.90
28010;DHT22;15334;49.494;8.410;2023-04-01T07:01:50;10.70;99.90
28010;DHT22;15334;49.494;8.410;2023-04-01T07:11:34;10.70;99.90
28010;DHT22;15334;49.494;8.410;2023-04-01T07:14:12;10.80;99.90
28010;DHT22;15334;49.494;8.410;2023-04-01T07:16:44;10.80;99.90
28010;DHT22;15334;49.494;8.410;2023-04-01T07:19:20;10.90;99.90
28010;DHT22;15334;49.494;8.410;2023-04-01T07:21:54;10.90;99.90
28010;DHT22;15334;49.494;8.410;2023-04-01T07:24:26;10.90;99.90
28010;DHT22;15334;49.494;8.410;2023-04-01T07:26:56;11.00;99.90
28010;DHT22;15334;49.494;8.410;2023-04-01T07:29:27;11.10;99.90
28010;DHT22;15334;49.494;8.410;2023-04-01T07:32:09;11.20;99.90
28010;DHT22;15334;49.494;8.410;2023-04-01T07:34:45;11.20;99.90
28010;DHT22;15334;49.494;8.410;2023-04-01T07:37:18;11.20;99.90
28010;DHT22;15334;49.494;8.410;2023-04-01T07:39:56;11.20;99.90
28010;DHT22;15334;49.494;8.410;2023-04-01T07:42:34;11.20;99.90
28010;DHT22;15334;49.494;8.410;2023-04-01T07:45:13;11.40;99.90
28010;DHT22;15334;49.494;8.410;2023-04-01T07:47:55;11.50;99.90
28010;DHT22;15334;49.494;8.410;2023-04-01T07:50:29;11.60;99.90
28010;DHT22;15334;49.494;8.410;2023-04-01T07:53:07;11.50;99.90
28010;DHT22;15334;49.494;8.410;2023-04-01T07:58:34;11.50;99.90
28010;DHT22;15334;49.494;8.410;2023-04-01T08:02:30;11.40;99.90
28010;DHT22;15334;49.494;8.410;2023-04-01T08:05:17;11.50;99.90
28010;DHT22;15334;49.494;8.410;2023-04-01T08:08:01;11.50;99.90
28010;DHT22;15334;49.494;8.410;2023-04-01T08:11:00;11.50;99.90
28010;DHT22;15334;49.494;8.410;2023-04-01T08:13:39;11.40;99.90
28010;DHT22;15334;49.494;8.410;2023-04-01T08:16:28;11.50;99.90
28010;DHT22;15334;49.494;8.410;2023-04-01T08:19:36;11.40;99.90
28010;DHT22;15334;49.494;8.410;2023-04-01T08:22:50;11.30;99.90
28010;DHT22;15334;49.494;8.410;2023-04-01T08:25:39;11.30;99.90
28010;DHT22;15334;49.494;8.410;2023-04-01T08:28:30;11.40;99.90
28010;DHT22;15334;49.494;8.410;2023-04-01T08:31:16;11.40;99.90
28010;DHT22;15334;49.494;8.410;2023-04-01T08:33:52;11.40;99.90
28010;DHT22;15334;49.494;8.410;2023-04-01T08:36:27;11.30;99.90
28010;DHT22;15334;49.494;8.410;2023-04-01T08:39:07;11.30;99.90
28010;DHT22;15334;49.494;8.410;2023-04-01T08:45:15;11.40;99.90
28010;DHT22;15334;49.494;8.410;2023-04-01T08:48:18;11.40;99.90
28010;DHT22;15334;49.494;8.410;2023-04-01T08:54:47;11.40;99.90
28010;DHT22;15334;49.494;8.410;2023-04-01T08:57:39;11.40;99.90
28010;DHT22;15334;49.494;8.410;2023-04-01T09:00:27;11.40;99.90
28010;DHT22;15334;49.494;8.410;2023-04-01T09:03:44;11.40;99.90
28010;DHT22;15334;49.494;8.410;2023-04-01T09:06:33;11.30;99.90
28010;DHT22;15334;49.494;8.410;2023-04-01T09:09:23;11.40;99.90
28010;DHT22;15334;49.494;8.410;2023-04-01T09:12:22;11.40;99.90
28010;DHT22;15334;49.494;8.410;2023-04-01T09:15:12;11.40;99.90
28010;DHT22;15334;49.494;8.410;2023-04-01T09:18:01;11.40;99.90
28010;DHT22;15334;49.494;8.410;2023-04-01T09:27:03;11.50;99.90
28010;DHT22;15334;49.494;8.410;2023-04-01T09:30:04;11.50;99.90
28010;DHT22;15334;49.494;8.410;2023-04-01T09:32:56;11.50;99.90
28010;DHT22;15334;49.494;8.410;2023-04-01T09:35:46;11.50;99.90
28010;DHT22;15334;49.494;8.410;2023-04-01T09:38:23;11.70;99.90
28010;DHT22;15334;49.494;8.410;2023-04-01T09:41:10;11.70;99.90
28010;DHT22;15334;49.494;8.410;2023-04-01T09:44:15;11.80;99.90
28010;DHT22;15334;49.494;8.410;2023-04-01T09:47:24;11.80;99.90
28010;DHT22;15334;49.494;8.410;2023-04-01T09:50:30;11.90;99.90
28010;DHT22;15334;49.494;8.410;2023-04-01T09:53:12;12.00;99.90
28010;DHT22;15334;49.494;8.410;2023-04-01T10:03:16;12.10;99.90
28010;DHT22;15334;49.494;8.410;2023-04-01T10:19:52;12.30;99.90
28010;DHT22;15334;49.494;8.410;2023-04-01T10:23:01;12.30;99.90
28010;DHT22;15334;49.494;8.410;2023-04-01T10:26:11;12.40;99.90
28010;DHT22;15334;49.494;8.410;2023-04-01T10:29:36;12.40;99.90
28010;DHT22;15334;49.494;8.410;2023-04-01T10:32:43;12.40;99.90
28010;DHT22;15334;49.494;8.410;2023-04-01T10:35:38;12.40;99.90
28010;DHT22;15334;49.494;8.410;2023-04-01T10:38:47;12.40;99.90
28010;DHT22;15334;49.494;8.410;2023-04-01T10:41:45;12.50;99.90
28010;DHT22;15334;49.494;8.410;2023-04-01T10:56:59;12.50;99.90
28010;DHT22;15334;49.494;8.410;2023-04-01T11:02:57;12.60;99.90
28010;DHT22;15334;49.494;8.410;2023-04-01T11:06:06;12.60;99.90
28010;DHT22;15334;49.494;8.410;2023-04-01T11:12:26;12.60;99.90
28010;DHT22;15334;49.494;8.410;2023-04-01T11:15:37;12.60;99.90
28010;DHT22;15334;49.494;8.410;2023-04-01T11:18:28;12.60;99.90
28010;DHT22;15334;49.494;8.410;2023-04-01T11:24:26;12.60;99.90
28010;DHT22;15334;49.494;8.410;2023-04-01T11:27:12;12.60;99.90
28010;DHT22;15334;49.494;8.410;2023-04-01T11:29:59;12.50;99.90
28010;DHT22;15334;49.494;8.410;2023-04-01T11:32:53;12.60;99.90
28010;DHT22;15334;49.494;8.410;2023-04-01T11:38:38;12.60;99.90
28010;DHT22;15334;49.494;8.410;2023-04-01T11:41:22;12.60;99.90
28010;DHT22;15334;49.494;8.410;2023-04-01T11:44:10;12.60;99.90
28010;DHT22;15334;49.494;8.410;2023-04-01T11:46:46;12.50;99.90
28010;DHT22;15334;49.494;8.410;2023-04-01T11:49:29;12.50;99.90
28010;DHT22;15334;49.494;8.410;2023-04-01T11:52:16;12.50;99.90
28010;DHT22;15334;49.494;8.410;2023-04-01T11:58:07;12.50;99.90
28010;DHT22;15334;49.494;8.410;2023-04-01T12:01:02;12.50;99.90
28010;DHT22;15334;49.494;8.410;2023-04-01T12:06:56;12.50;99.90
28010;DHT22;15334;49.494;8.410;2023-04-01T12:09:38;12.50;99.90
28010;DHT22;15334;49.494;8.410;2023-04-01T12:12:20;12.60;99.90
28010;DHT22;15334;49.494;8.410;2023-04-01T12:15:02;12.60;99.90
28010;DHT22;15334;49.494;8.410;2023-04-01T12:17:43;12.60;99.90
28010;DHT22;15334;49.494;8.410;2023-04-01T12:20:43;12.60;99.90
28010;DHT22;15334;49.494;8.410;2023-04-01T12:26:25;12.50;99.90
28010;DHT22;15334;49.494;8.410;2023-04-01T12:29:07;12.50;99.90
28010;DHT22;15334;49.494;8.410;2023-04-01T12:31:46;12.60;99.90
28010;DHT22;15334;49.494;8.410;2023-04-01T12:34:44;12.70;99.90
28010;DHT22;15334;49.494;8.410;2023-04-01T12:37:30;12.80;99.90
28010;DHT22;15334;49.494;8.410;2023-04-01T12:40:41;12.80;99.90
28010;DHT22;15334;49.494;8.410;2023-04-01T12:46:26;12.90;99.90
28010;DHT22;15334;49.494;8.410;2023-04-01T12:49:38;12.80;99.90
28010;DHT22;15334;49.494;8.410;2023-04-01T12:52:28;12.90;99.90
28010;DHT22;15334;49.494;8.410;2023-04-01T12:55:35;12.90;99.90
28010;DHT22;15334;49.494;8.410;2023-04-01T12:58:34;12.90;99.90
28010;DHT22;15334;49.494;8.410;2023-04-01T13:01:41;13.00;99.90
28010;DHT22;15334;49.494;8.410;2023-04-01T13:10:23;12.90;99.90
28010;DHT22;15334;49.494;8.410;2023-04-01T13:13:41;12.80;99.90
28010;DHT22;15334;49.494;8.410;2023-04-01T13:16:31;12.80;99.90
28010;DHT22;15334;49.494;8.410;2023-04-01T13:19:07;12.70;99.90
28010;DHT22;15334;49.494;8.410;2023-04-01T13:21:48;12.70;99.90
28010;DHT22;15334;49.494;8.410;2023-04-01T13:24:32;12.60;99.90
28010;DHT22;15334;49.494;8.410;2023-04-01T13:27:20;12.60;99.90
28010;DHT22;15334;49.494;8.410;2023-04-01T13:30:18;12.70;99.90
28010;DHT22;15334;49.494;8.410;2023-04-01T13:33:27;12.60;99.90
28010;DHT22;15334;49.494;8.410;2023-04-01T13:36:41;12.70;99.90
28010;DHT22;15334;49.494;8.410;2023-04-01T13:43:04;12.80;99.90
28010;DHT22;15334;49.494;8.410;2023-04-01T13:45:47;12.80;99.90
28010;DHT22;15334;49.494;8.410;2023-04-01T13:48:32;12.90;99.90
28010;DHT22;15334;49.494;8.410;2023-04-01T13:51:27;12.90;99.90
28010;DHT22;15334;49.494;8.410;2023-04-01T13:57:26;13.00;99.90
28010;DHT22;15334;49.494;8.410;2023-04-01T14:00:19;13.00;99.90
28010;DHT22;15334;49.494;8.410;2023-04-01T14:05:53;12.90;99.90
28010;DHT22;15334;49.494;8.410;2023-04-01T14:08:42;12.90;99.90
28010;DHT22;15334;49.494;8.410;2023-04-01T14:11:55;12.90;99.90
28010;DHT22;15334;49.494;8.410;2023-04-01T14:19:03;12.70;99.90
28010;DHT22;15334;49.494;8.410;2023-04-01T14:21:39;12.60;99.90
28010;DHT22;15334;49.494;8.410;2023-04-01T14:24:22;12.60;99.90
28010;DHT22;15334;49.494;8.410;2023-04-01T14:27:32;12.50;99.90
28010;DHT22;15334;49.494;8.410;2023-04-01T14:30:20;12.50;99.90
28010;DHT22;15334;49.494;8.410;2023-04-01T14:33:04;12.60;99.90
28010;DHT22;15334;49.494;8.410;2023-04-01T14:35:38;12.60;99.90
28010;DHT22;15334;49.494;8.410;2023-04-01T14:38:26;12.50;99.90
28010;DHT22;15334;49.494;8.410;2023-04-01T14:41:06;12.50;99.90
28010;DHT22;15334;49.494;8.410;2023-04-01T14:49:50;12.60;99.90
28010;DHT22;15334;49.494;8.410;2023-04-01T14:52:27;12.60;99.90
28010;DHT22;15334;49.494;8.410;2023-04-01T14:54:57;12.70;99.90
28010;DHT22;15334;49.494;8.410;2023-04-01T14:57:28;12.80;99.90
28010;DHT22;15334;49.494;8.410;2023-04-01T15:00:00;12.80;99.90
28010;DHT22;15334;49.494;8.410;2023-04-01T15:02:42;12.80;99.90
28010;DHT22;15334;49.494;8.410;2023-04-01T15:05:24;12.70;99.90
28010;DHT22;15334;49.494;8.410;2023-04-01T15:08:11;12.70;99.90
28010;DHT22;15334;49.494;8.410;2023-04-01T15:10:58;12.60;99.90
28010;DHT22;15334;49.494;8.410;2023-04-01T15:13:45;12.60;99.90
28010;DHT22;15334;49.494;8.410;2023-04-01T15:16:23;12.60;99.90
28010;DHT22;15334;49.494;8.410;2023-04-01T15:19:00;12.50;99.90
28010;DHT22;15334;49.494;8.410;2023-04-01T15:21:52;12.50;99.90
28010;DHT22;15334;49.494;8.410;2023-04-01T15:25:01;12.60;99.90
28010;DHT22;15334;49.494;8.410;2023-04-01T15:27:37;12.60;99.90
28010;DHT22;15334;49.494;8.410;2023-04-01T15:30:29;12.60;99.90
28010;DHT22;15334;49.494;8.410;2023-04-01T15:33:20;12.60;99.90
28010;DHT22;15334;49.494;8.410;2023-04-01T15:35:52;12.70;99.90
28010;DHT22;15334;49.494;8.410;2023-04-01T15:38:34;12.70;99.90
28010;DHT22;15334;49.494;8.410;2023-04-01T15:41:14;12.70;99.90
28010;DHT22;15334;49.494;8.410;2023-04-01T15:43:44;12.70;99.90
28010;DHT22;15334;49.494;8.410;2023-04-01T15:46:25;12.70;99.90
28010;DHT22;15334;49.494;8.410;2023-04-01T15:49:03;12.70;99.90
28010;DHT22;15334;49.494;8.410;2023-04-01T15:51:45;12.70;99.90
28010;DHT22;15334;49.494;8.410;2023-04-01T15:54:37;12.70;99.90
28010;DHT22;15334;49.494;8.410;2023-04-01T15:57:16;12.70;99.90
28010;DHT22;15334;49.494;8.410;2023-04-01T16:00:02;12.80;99.90
28010;DHT22;15334;49.494;8.410;2023-04-01T16:02:45;12.90;99.90
28010;DHT22;15334;49.494;8.410;2023-04-01T16:05:34;12.90;99.90
28010;DHT22;15334;49.494;8.410;2023-04-01T16:08:40;12.80;99.90
28010;DHT22;15334;49.494;8.410;2023-04-01T16:11:19;12.90;99.90
28010;DHT22;15334;49.494;8.410;2023-04-01T16:14:03;12.80;99.90
28010;DHT22;15334;49.494;8.410;2023-04-01T16:19:37;12.60;99.90
28010;DHT22;15334;49.494;8.410;2023-04-01T16:22:08;12.50;99.90
28010;DHT22;15334;49.494;8.410;2023-04-01T16:24:41;12.50;99.90
28010;DHT22;15334;49.494;8.410;2023-04-01T16:27:25;12.40;99.90
28010;DHT22;15334;49.494;8.410;2023-04-01T16:30:00;12.50;99.90
28010;DHT22;15334;49.494;8.410;2023-04-01T16:32:40;12.40;99.90
28010;DHT22;15334;49.494;8.410;2023-04-01T16:35:35;12.40;99.90
28010;DHT22;15334;49.494;8.410;2023-04-01T16:38:12;12.40;99.90
28010;DHT22;15334;49.494;8.410;2023-04-01T16:40:46;12.40;99.90
28010;DHT22;15334;49.494;8.410;2023-04-01T16:43:21;12.50;99.90
28010;DHT22;15334;49.494;8.410;2023-04-01T16:46:30;12.50;99.90
28010;DHT22;15334;49.494;8.410;2023-04-01T16:49:03;12.40;99.90
28010;DHT22;15334;49.494;8.410;2023-04-01T16:51:38;12.40;99.90
28010;DHT22;15334;49.494;8.410;2023-04-01T16:54:16;12.40;99.90
28010;DHT22;15334;49.494;8.410;2023-04-01T16:56:48;12.40;99.90
28010;DHT22;15334;49.494;8.410;2023-04-01T16:59:25;12.50;99.90
28010;DHT22;15334;49.494;8.410;2023-04-01T17:02:08;12.50;99.90
28010;DHT22;15334;49.494;8.410;2023-04-01T17:05:00;12.50;99.90
28010;DHT22;15334;49.494;8.410;2023-04-01T17:07:46;12.40;99.90
28010;DHT22;15334;49.494;8.410;2023-04-01T17:10:35;12.40;99.90
28010;DHT22;15334;49.494;8.410;2023-04-01T17:13:24;12.40;99.90
28010;DHT22;15334;49.494;8.410;2023-04-01T17:16:25;12.30;99.90
28010;DHT22;15334;49.494;8.410;2023-04-01T17:19:00;12.30;99.90
28010;DHT22;15334;49.494;8.410;2023-04-01T17:21:44;12.30;99.90
28010;DHT22;15334;49.494;8.410;2023-04-01T17:24:18;12.30;99.90
28010;DHT22;15334;49.494;8.410;2023-04-01T17:26:56;12.30;99.90
28010;DHT22;15334;49.494;8.410;2023-04-01T17:29:33;12.30;99.90
28010;DHT22;15334;49.494;8.410;2023-04-01T17:32:11;12.30;99.90
28010;DHT22;15334;49.494;8.410;2023-04-01T17:34:52;12.20;99.90
28010;DHT22;15334;49.494;8.410;2023-04-01T17:37:33;12.20;99.90
28010;DHT22;15334;49.494;8.410;2023-04-01T17:40:20;12.20;99.90
28010;DHT22;15334;49.494;8.410;2023-04-01T17:42:56;12.10;99.90
28010;DHT22;15334;49.494;8.410;2023-04-01T17:45:32;12.10;99.90
28010;DHT22;15334;49.494;8.410;2023-04-01T17:48:12;12.00;99.90
28010;DHT22;15334;49.494;8.410;2023-04-01T17:50:51;12.00;99.90
28010;DHT22;15334;49.494;8.410;2023-04-01T17:53:33;12.00;99.90
28010;DHT22;15334;49.494;8.410;2023-04-01T17:56:15;12.00;99.90
28010;DHT22;15334;49.494;8.410;2023-04-01T17:58:46;11.90;99.90
28010;DHT22;15334;49.494;8.410;2023-04-01T18:01:30;11.90;99.90
28010;DHT22;15334;49.494;8.410;2023-04-01T18:04:59;11.80;99.90
28010;DHT22;15334;49.494;8.410;2023-04-01T18:08:52;11.80;99.90
28010;DHT22;15334;49.494;8.410;2023-04-01T18:12:04;11.70;99.90
28010;DHT22;15334;49.494;8.410;2023-04-01T18:15:45;11.70;99.90
28010;DHT22;15334;49.494;8.410;2023-04-01T18:22:36;11.60;99.90
28010;DHT22;15334;49.494;8.410;2023-04-01T18:25:43;11.60;99.90
28010;DHT22;15334;49.494;8.410;2023-04-01T18:29:45;11.50;99.90
28010;DHT22;15334;49.494;8.410;2023-04-01T18:33:22;11.50;99.90
28010;DHT22;15334;49.494;8.410;2023-04-01T18:38:26;11.50;99.90
28010;DHT22;15334;49.494;8.410;2023-04-01T18:40:26;11.50;99.90
28010;DHT22;15334;49.494;8.410;2023-04-01T18:43:30;11.40;99.90
28010;DHT22;15334;49.494;8.410;2023-04-01T18:46:41;11.50;99.90
28010;DHT22;15334;49.494;8.410;2023-04-01T18:49:43;11.50;99.90
28010;DHT22;15334;49.494;8.410;2023-04-01T18:52:56;11.40;99.90
28010;DHT22;15334;49.494;8.410;2023-04-01T18:55:46;11.40;99.90
28010;DHT22;15334;49.494;8.410;2023-04-01T18:58:32;11.50;99.90
28010;DHT22;15334;49.494;8.410;2023-04-01T19:01:23;11.50;99.90
28010;DHT22;15334;49.494;8.410;2023-04-01T19:05:00;11.40;99.90
28010;DHT22;15334;49.494;8.410;2023-04-01T19:07:41;11.50;99.90
28010;DHT22;15334;49.494;8.410;2023-04-01T19:10:55;11.50;99.90
28010;DHT22;15334;49.494;8.410;2023-04-01T19:14:41;11.40;99.90
28010;DHT22;15334;49.494;8.410;2023-04-01T19:21:44;11.40;99.90
28010;DHT22;15334;49.494;8.410;2023-04-01T19:25:00;11.30;99.90
28010;DHT22;15334;49.494;8.410;2023-04-01T19:28:19;11.30;99.90
28010;DHT22;15334;49.494;8.410;2023-04-01T19:34:31;11.30;99.90
28010;DHT22;15334;49.494;8.410;2023-04-01T19:37:33;11.30;99.90
28010;DHT22;15334;49.494;8.410;2023-04-01T19:40:40;11.30;99.90
28010;DHT22;15334;49.494;8.410;2023-04-01T19:44:07;11.30;99.90
28010;DHT22;15334;49.494;8.410;2023-04-01T19:47:38;11.30;99.90
28010;DHT22;15334;49.494;8.410;2023-04-01T19:50:45;11.30;99.90
28010;DHT22;15334;49.494;8.410;2023-04-01T19:53:57;11.30;99.90
28010;DHT22;15334;49.494;8.410;2023-04-01T19:57:16;11.20;99.90
28010;DHT22;15334;49.494;8.410;2023-04-01T20:00:27;11.10;99.90
28010;DHT22;15334;49.494;8.410;2023-04-01T20:03:33;11.10;99.90
28010;DHT22;15334;49.494;8.410;2023-04-01T20:07:57;11.10;99.90
28010;DHT22;15334;49.494;8.410;2023-04-01T20:10:09;11.10;99.90
28010;DHT22;15334;49.494;8.410;2023-04-01T20:12:51;11.10;99.90
28010;DHT22;15334;49.494;8.410;2023-04-01T20:19:48;11.20;99.90
28010;DHT22;15334;49.494;8.410;2023-04-01T20:23:06;11.10;99.90
28010;DHT22;15334;49.494;8.410;2023-04-01T20:26:23;11.10;99.90
28010;DHT22;15334;49.494;8.410;2023-04-01T20:29:55;11.00;99.90
28010;DHT22;15334;49.494;8.410;2023-04-01T20:33:02;11.00;99.90
28010;DHT22;15334;49.494;8.410;2023-04-01T20:36:06;11.00;99.90
28010;DHT22;15334;49.494;8.410;2023-04-01T20:42:47;11.00;99.90
28010;DHT22;15334;49.494;8.410;2023-04-01T20:45:35;11.00;99.90
28010;DHT22;15334;49.494;8.410;2023-04-01T20:48:43;11.00;99.90
28010;DHT22;15334;49.494;8.410;2023-04-01T20:51:38;11.00;99.90
28010;DHT22;15334;49.494;8.410;2023-04-01T20:54:22;10.90;99.90
28010;DHT22;15334;49.494;8.410;2023-04-01T20:57:27;10.90;99.90
28010;DHT22;15334;49.494;8.410;2023-04-01T21:00:34;10.90;99.90
28010;DHT22;15334;49.494;8.410;2023-04-01T21:03:29;10.90;99.90
28010;DHT22;15334;49.494;8.410;2023-04-01T21:06:42;10.90;99.90
28010;DHT22;15334;49.494;8.410;2023-04-01T21:09:55;10.90;99.90
28010;DHT22;15334;49.494;8.410;2023-04-01T21:16:52;10.90;99.90
28010;DHT22;15334;49.494;8.410;2023-04-01T21:20:05;10.90;99.90
28010;DHT22;15334;49.494;8.410;2023-04-01T21:23:08;10.80;99.90
28010;DHT22;15334;49.494;8.410;2023-04-01T21:29:58;10.80;99.90
28010;DHT22;15334;49.494;8.410;2023-04-01T21:32:52;10.80;99.90
28010;DHT22;15334;49.494;8.410;2023-04-01T21:36:07;10.80;99.90
28010;DHT22;15334;49.494;8.410;2023-04-01T21:38:58;10.70;99.90
28010;DHT22;15334;49.494;8.410;2023-04-01T21:42:21;10.70;99.90
28010;DHT22;15334;49.494;8.410;2023-04-01T21:45:22;10.70;99.90
28010;DHT22;15334;49.494;8.410;2023-04-01T21:52:10;10.70;99.90
28010;DHT22;15334;49.494;8.410;2023-04-01T22:01:50;10.80;99.90
28010;DHT22;15334;49.494;8.410;2023-04-01T22:04:44;10.80;99.90
28010;DHT22;15334;49.494;8.410;2023-04-01T22:07:19;10.70;99.90
28010;DHT22;15334;49.494;8.410;2023-04-01T22:09:55;10.60;99.90
28010;DHT22;15334;49.494;8.410;2023-04-01T22:12:31;10.70;99.90
28010;DHT22;15334;49.494;8.410;2023-04-01T22:15:11;10.70;99.90
28010;DHT22;15334;49.494;8.410;2023-04-01T22:17:48;10.70;99.90
28010;DHT22;15334;49.494;8.410;2023-04-01T22:20:25;10.70;99.90
28010;DHT22;15334;49.494;8.410;2023-04-01T22:23:11;10.70;99.90
28010;DHT22;15334;49.494;8.410;2023-04-01T22:25:45;10.80;99.90
28010;DHT22;15334;49.494;8.410;2023-04-01T22:28:18;10.80;99.90
28010;DHT22;15334;49.494;8.410;2023-04-01T22:30:50;10.70;99.90
28010;DHT22;15334;49.494;8.410;2023-04-01T22:33:23;10.80;99.90
28010;DHT22;15334;49.494;8.410;2023-04-01T22:35:58;10.70;99.90
28010;DHT22;15334;49.494;8.410;2023-04-01T22:38:41;10.80;99.90
28010;DHT22;15334;49.494;8.410;2023-04-01T22:41:28;10.80;99.90
28010;DHT22;15334;49.494;8.410;2023-04-01T22:43:58;10.80;99.90
28010;DHT22;15334;49.494;8.410;2023-04-01T22:46:45;10.80;99.90
28010;DHT22;15334;49.494;8.410;2023-04-01T22:49:21;10.70;99.90
28010;DHT22;15334;49.494;8.410;2023-04-01T22:51:53;10.70;99.90
28010;DHT22;15334;49.494;8.410;2023-04-01T22:54:27;10.70;99.90
28010;DHT22;15334;49.494;8.410;2023-04-01T22:57:00;10.70;99.90
28010;DHT22;15334;49.494;8.410;2023-04-01T22:59:35;10.80;99.90
28010;DHT22;15334;49.494;8.410;2023-04-01T23:02:11;10.70;99.90
28010;DHT22;15334;49.494;8.410;2023-04-01T23:04:43;10.70;99.90
28010;DHT22;15334;49.494;8.410;2023-04-01T23:07:31;10.70;99.90
28010;DHT22;15334;49.494;8.410;2023-04-01T23:10:11;10.70;99.90
28010;DHT22;15334;49.494;8.410;2023-04-01T23:12:41;10.60;99.90
28010;DHT22;15334;49.494;8.410;2023-04-01T23:15:13;10.70;99.90
28010;DHT22;15334;49.494;8.410;2023-04-01T23:17:50;10.70;99.90
28010;DHT22;15334;49.494;8.410;2023-04-01T23:20:47;10.70;99.90
28010;DHT22;15334;49.494;8.410;2023-04-01T23:23:25;10.70;99.90
28010;DHT22;15334;49.494;8.410;2023-04-01T23:26:02;10.70;99.90
28010;DHT22;15334;49.494;8.410;2023-04-01T23:28:41;10.70;99.90
28010;DHT22;15334;49.494;8.410;2023-04-01T23:31:35;10.70;99.90
28010;DHT22;15334;49.494;8.410;2023-04-01T23:37:02;10.60;99.90
28010;DHT22;15334;49.494;8.410;2023-04-01T23:39:32;10.60;99.90
28010;DHT22;15334;49.494;8.410;2023-04-01T23:42:04;10.60;99.90
28010;DHT22;15334;49.494;8.410;2023-04-01T23:44:34;10.60;99.90
28010;DHT22;15334;49.494;8.410;2023-04-01T23:47:04;10.60;99.90